Time;durP1;ratioP1;P1;durP2;ratioP2;P2;SDS_P1;SDS_P2;PMS_P1;PMS_P2;Temp;Humidity;BMP_temperature;BMP_pressure;BME280_temperature;BME280_humidity;BME280_pressure;Samples;Min_cycle;Max_cycle;Signal;HPM_P1;HPM_P2
2023/02/13 00:10:12;;;;;;;46.80;15.50;;;;;;;7.24;100.00;102000.98;682431;1262;137940;-80
2023/02/13 00:25:15;;;;;;;42.70;13.50;;;;;;;7.33;100.00;101988.92;682345;1262;139689;-82
2023/02/13 00:40:18;;;;;;;34.10;12.60;;;;;;;7.37;100.00;101987.35;682417;1265;139085;-82
2023/02/13 00:55:22;;;;;;;27.20;9.70;;;;;;;7.46;100.00;101978.73;682878;1262;139001;-83
2023/02/13 01:10:25;;;;;;;23.10;9.00;;;;;;;7.55;100.00;101973.05;682757;1263;138635;-82
2023/02/13 01:25:29;;;;;;;14.10;7.90;;;;;;;7.59;100.00;101965.77;682731;1263;138865;-82
2023/02/13 01:40:33;;;;;;;38.20;12.40;;;;;;;7.43;100.00;101967.88;682670;1263;139679;-82
2023/02/13 01:55:48;;;;;;;23.70;8.60;;;;;;;7.29;100.00;101959.69;682946;1261;138905;-82
2023/02/13 02:10:54;;;;;;;20.10;10.50;;;;;;;7.24;100.00;101954.70;682605;1263;138735;-81
2023/02/13 02:26:11;;;;;;;13.50;7.60;;;;;;;7.29;100.00;101957.96;682743;1263;139419;-82
2023/02/13 02:41:42;;;;;;;18.50;7.70;;;;;;;7.36;100.00;101943.48;682739;1263;139614;-82
2023/02/13 02:56:52;;;;;;;15.30;6.30;;;;;;;7.41;100.00;101949.70;682877;1263;138780;-81
2023/02/13 03:43:09;;;;;;;16.50;7.20;;;;;;;7.48;100.00;101976.36;682954;1261;139093;-82
2023/02/13 04:13:48;;;;;;;23.00;8.50;;;;;;;7.39;100.00;101978.72;682823;1260;139303;-82
2023/02/13 04:28:52;;;;;;;16.20;9.00;;;;;;;7.39;100.00;101981.98;682745;1263;139068;-82
2023/02/13 04:43:55;;;;;;;12.10;6.20;;;;;;;7.39;100.00;101987.23;682995;1259;139018;-82
2023/02/13 04:58:58;;;;;;;20.10;8.00;;;;;;;7.43;100.00;101978.16;682743;1262;138829;-82
2023/02/13 05:14:01;;;;;;;18.20;6.80;;;;;;;7.42;100.00;101977.17;682783;1260;139060;-82
2023/02/13 05:29:21;;;;;;;27.00;10.40;;;;;;;7.55;100.00;101992.42;682567;1260;138949;-81
2023/02/13 05:44:24;;;;;;;28.30;12.40;;;;;;;7.64;100.00;101998.06;682883;1261;140138;-82
2023/02/13 05:59:28;;;;;;;16.30;7.40;;;;;;;7.67;100.00;101981.36;682809;1262;140959;-82
2023/02/13 06:14:31;;;;;;;17.30;7.90;;;;;;;7.56;100.00;101987.47;682979;1259;139084;-82
2023/02/13 06:29:34;;;;;;;19.70;10.10;;;;;;;7.59;100.00;101983.86;682758;1263;139464;-82
2023/02/13 06:44:37;;;;;;;26.70;11.70;;;;;;;7.66;100.00;101993.61;682909;1260;138976;-82
2023/02/13 06:59:40;;;;;;;14.50;7.90;;;;;;;7.67;99.85;102001.55;682821;1260;140027;-82
2023/02/13 07:14:44;;;;;;;7.10;4.30;;;;;;;7.71;98.82;102002.80;682502;1259;138433;-82
2023/02/13 07:29:47;;;;;;;9.40;4.70;;;;;;;7.79;97.31;101995.95;682671;1259;138622;-82
2023/02/13 07:44:50;;;;;;;351.30;107.20;;;;;;;7.84;96.39;101996.25;682896;1261;138281;-83
2023/02/13 07:59:53;;;;;;;18.50;14.70;;;;;;;7.84;95.81;101977.40;682747;1262;140456;-81
2023/02/13 08:14:56;;;;;;;40.50;20.40;;;;;;;7.85;95.07;101971.11;682669;1259;139178;-82
2023/02/13 08:30:02;;;;;;;21.20;11.90;;;;;;;8.01;94.34;101972.55;682899;1262;139500;-82
2023/02/13 08:45:05;;;;;;;21.00;8.80;;;;;;;8.02;94.27;101977.73;683063;1259;138909;-82
2023/02/13 09:00:08;;;;;;;33.60;16.20;;;;;;;8.04;94.22;101969.61;682693;1259;142672;-81
2023/02/13 09:15:12;;;;;;;18.50;10.50;;;;;;;7.95;94.02;101984.02;682794;1260;138936;-80
2023/02/13 09:30:22;;;;;;;22.50;11.20;;;;;;;8.02;93.87;101969.19;683019;1259;138824;-82
2023/02/13 09:45:25;;;;;;;32.00;17.10;;;;;;;8.20;93.12;101960.82;683124;1263;138656;-82
2023/02/13 10:00:38;;;;;;;65.60;26.40;;;;;;;8.31;92.86;101968.77;682757;1262;139519;-82
2023/02/13 10:15:58;;;;;;;106.80;43.20;;;;;;;8.44;91.92;101968.66;682737;1259;140148;-82
2023/02/13 10:31:11;;;;;;;53.20;24.10;;;;;;;8.59;90.87;101963.52;683029;1259;138815;-81
2023/02/13 10:46:39;;;;;;;13.50;7.40;;;;;;;8.74;89.78;101937.41;683012;1263;138801;-82
2023/02/13 11:01:52;;;;;;;14.40;6.10;;;;;;;9.06;88.30;101921.02;682828;1263;138523;-81
2023/02/13 11:17:06;;;;;;;43.90;18.20;;;;;;;9.27;86.42;101910.98;682712;1259;139275;-81
2023/02/13 11:32:23;;;;;;;66.80;27.10;;;;;;;9.41;84.89;101903.70;682985;1260;140169;-83
2023/02/13 11:47:37;;;;;;;28.40;12.90;;;;;;;9.78;84.16;101896.52;682932;1259;138758;-82
2023/02/13 12:02:51;;;;;;;15.20;7.40;;;;;;;11.17;78.72;101883.39;682940;1262;138604;-84
2023/02/13 12:18:09;;;;;;;10.80;5.80;;;;;;;10.64;77.92;101861.07;682672;1262;139326;-82
2023/02/13 12:33:44;;;;;;;41.10;19.80;;;;;;;10.15;80.30;101849.37;683132;1261;139355;-83
2023/02/13 12:48:53;;;;;;;302.70;113.30;;;;;;;10.01;80.31;101843.39;682785;1262;139083;-82
2023/02/13 13:04:30;;;;;;;64.60;28.70;;;;;;;9.75;81.33;101836.06;682559;1262;139661;-82
2023/02/13 13:19:53;;;;;;;25.70;12.70;;;;;;;9.93;80.53;101829.56;682666;1261;140200;-83
2023/02/13 13:34:57;;;;;;;52.10;24.80;;;;;;;9.79;79.45;101827.96;682628;1260;139616;-83
2023/02/13 13:50:04;;;;;;;12.10;6.10;;;;;;;9.61;80.19;101823.44;682901;1262;139977;-81
2023/02/13 14:05:22;;;;;;;20.40;8.00;;;;;;;9.41;80.24;101831.26;682530;1260;138892;-83
2023/02/13 14:20:31;;;;;;;14.60;6.80;;;;;;;9.51;80.53;101817.90;683247;1263;139618;-83
2023/02/13 14:35:36;;;;;;;42.40;18.90;;;;;;;9.28;80.75;101811.02;683124;1262;138737;-82
2023/02/13 14:50:50;;;;;;;21.20;9.70;;;;;;;9.19;80.15;101792.17;682941;1262;138728;-82
2023/02/13 15:05:58;;;;;;;48.60;21.40;;;;;;;9.08;80.03;101791.80;682957;1263;138892;-82
2023/02/13 15:21:02;;;;;;;;;;;;;;;9.12;79.27;101811.45;682952;1262;139557;-81
2023/02/13 15:36:05;;;;;;;168.80;58.60;;;;;;;9.08;79.38;101814.44;682772;1262;125473;-83
2023/02/13 15:51:18;;;;;;;32.30;12.70;;;;;;;9.06;79.65;101811.11;682950;1263;141544;-81
2023/02/13 16:06:48;;;;;;;39.60;16.60;;;;;;;9.12;78.76;101806.37;683040;1262;139387;-81
2023/02/13 16:22:28;;;;;;;37.80;20.00;;;;;;;8.90;79.51;101806.04;682762;1263;139413;-82
2023/02/13 16:37:33;;;;;;;39.80;19.20;;;;;;;8.84;78.83;101812.99;682795;1262;138934;-81
2023/02/13 16:52:36;;;;;;;44.50;19.80;;;;;;;8.74;78.52;101821.08;682613;1260;138999;-81
2023/02/13 17:07:49;;;;;;;46.70;26.30;;;;;;;8.60;78.66;101833.66;683025;1262;138613;-80
2023/02/13 17:22:56;;;;;;;73.80;34.60;;;;;;;8.40;79.13;101848.55;682833;1263;138717;-82
2023/02/13 17:37:59;;;;;;;104.40;43.50;;;;;;;8.39;79.10;101864.80;682627;1263;138976;-82
2023/02/13 17:53:06;;;;;;;60.30;26.00;;;;;;;8.33;79.21;101880.66;682633;1269;139135;-81
2023/02/13 18:08:09;;;;;;;103.00;43.70;;;;;;;8.28;79.40;101889.79;682846;1262;138751;-82
2023/02/13 18:23:13;;;;;;;34.90;12.50;;;;;;;8.29;79.22;101877.70;682683;1263;138869;-81
2023/02/13 18:38:16;;;;;;;21.70;8.30;;;;;;;8.29;79.32;101882.58;682776;1261;139745;-80
2023/02/13 18:53:20;;;;;;;12.10;5.10;;;;;;;8.22;79.24;101888.34;682508;1263;139670;-81
2023/02/13 19:08:23;;;;;;;45.70;18.50;;;;;;;8.22;79.35;101903.36;682810;1261;138655;-82
2023/02/13 19:23:27;;;;;;;64.80;23.80;;;;;;;8.05;80.06;101910.85;682803;1264;139098;-82
2023/02/13 19:38:31;;;;;;;41.40;13.40;;;;;;;8.03;80.02;101915.14;682842;1262;139860;-82
2023/02/13 19:53:34;;;;;;;29.90;9.90;;;;;;;7.84;80.60;101920.82;682817;1264;138686;-82
2023/02/13 20:08:38;;;;;;;45.00;20.60;;;;;;;7.50;81.09;101920.57;682559;1260;138593;-83
2023/02/13 20:23:50;;;;;;;47.80;15.30;;;;;;;7.19;81.85;101933.88;682405;1263;139232;-82
2023/02/13 20:38:55;;;;;;;60.20;18.60;;;;;;;6.95;82.96;101947.85;682341;1261;138733;-81
2023/02/13 20:53:59;;;;;;;51.80;17.40;;;;;;;6.81;83.98;101946.60;682308;1266;138883;-81
2023/02/13 21:09:05;;;;;;;88.00;24.20;;;;;;;6.60;84.63;101952.08;682523;1263;139616;-81
2023/02/13 21:24:12;;;;;;;69.70;22.50;;;;;;;6.25;85.43;101953.59;682679;1264;139332;-82
2023/02/13 21:39:15;;;;;;;87.10;24.90;;;;;;;6.02;85.63;101950.19;682805;1273;139192;-82
2023/02/13 21:54:18;;;;;;;29.90;11.80;;;;;;;5.78;86.09;101942.83;682590;1267;139815;-82
2023/02/13 22:09:22;;;;;;;79.40;21.10;;;;;;;5.54;87.10;101948.33;682614;1259;138541;-82
2023/02/13 22:24:26;;;;;;;69.90;20.30;;;;;;;5.55;87.12;101958.56;682547;1259;138731;-82
2023/02/13 22:39:29;;;;;;;98.10;31.50;;;;;;;5.41;86.70;101954.59;682563;1260;138718;-81
2023/02/13 22:54:33;;;;;;;39.50;13.70;;;;;;;5.19;87.89;101955.23;682567;1260;138724;-81
2023/02/13 23:09:36;;;;;;;68.00;18.10;;;;;;;5.14;87.76;101962.02;682630;1260;139102;-82
2023/02/13 23:24:39;;;;;;;50.20;16.10;;;;;;;4.97;89.34;101971.88;682148;1262;139186;-81
2023/02/13 23:39:43;;;;;;;49.80;17.50;;;;;;;4.93;89.94;101967.33;682738;1259;138633;-81
2023/02/13 23:54:46;;;;;;;22.00;9.70;;;;;;;4.88;91.11;101973.77;682236;1261;139276;-81
